Time;durP1;ratioP1;P1;durP2;ratioP2;P2;SDS_P1;SDS_P2;PMS_P1;PMS_P2;Temp;Humidity;BMP_temperature;BMP_pressure;BME280_temperature;BME280_humidity;BME280_pressure;Samples;Min_cycle;Max_cycle;Signal;HPM_P1;HPM_P2
2022/10/26 00:01:40;;;;;;;5.03;3.30;;;10.80;99.90;;;;;;4997002;28;20038;-81
2022/10/26 00:04:05;;;;;;;4.28;3.17;;;10.90;99.90;;;;;;4992228;28;20030;-80
2022/10/26 00:06:32;;;;;;;5.28;3.30;;;10.80;99.90;;;;;;4986189;28;20030;-80
2022/10/26 00:08:58;;;;;;;4.50;3.20;;;10.90;99.90;;;;;;4983272;28;20472;-80
2022/10/26 00:11:24;;;;;;;4.28;3.20;;;10.90;99.90;;;;;;4978814;28;20077;-81
2022/10/26 00:13:50;;;;;;;6.68;3.38;;;10.90;99.90;;;;;;4996952;28;20466;-80
2022/10/26 00:16:22;;;;;;;4.95;3.33;;;10.90;99.90;;;;;;4981167;28;20528;-81
2022/10/26 00:18:48;;;;;;;5.85;3.67;;;10.90;99.90;;;;;;4990664;28;20027;-81
2022/10/26 00:21:14;;;;;;;7.05;3.28;;;11.00;99.90;;;;;;4978019;28;20466;-81
2022/10/26 00:23:42;;;;;;;4.43;3.20;;;11.00;99.90;;;;;;4997781;28;20022;-82
2022/10/26 00:26:08;;;;;;;6.80;3.80;;;11.00;99.90;;;;;;4998380;28;20029;-81
2022/10/26 00:28:34;;;;;;;5.30;4.05;;;11.00;99.90;;;;;;5011722;28;20014;-81
2022/10/26 00:31:05;;;;;;;5.60;3.72;;;11.00;99.90;;;;;;4984155;28;20085;-81
2022/10/26 00:33:31;;;;;;;5.15;3.58;;;10.90;99.90;;;;;;4994272;28;20223;-81
2022/10/26 00:35:57;;;;;;;5.72;3.60;;;11.00;99.90;;;;;;4996913;28;20022;-81
2022/10/26 00:38:23;;;;;;;5.55;3.55;;;10.90;99.90;;;;;;4996022;28;20025;-81
2022/10/26 00:40:50;;;;;;;5.40;3.65;;;11.00;99.90;;;;;;4994197;28;20034;-81
2022/10/26 00:43:34;;;;;;;5.35;3.25;;;11.00;99.90;;;;;;4994815;28;20030;-82
2022/10/26 00:46:02;;;;;;;4.95;3.42;;;11.00;99.90;;;;;;4976455;28;20394;-82
2022/10/26 00:48:33;;;;;;;5.28;3.55;;;11.00;99.90;;;;;;4998555;28;20034;-82
2022/10/26 00:51:03;;;;;;;5.65;3.78;;;11.00;99.90;;;;;;4996846;28;20045;-81
2022/10/26 00:53:30;;;;;;;5.55;3.50;;;11.10;99.90;;;;;;4993936;28;20026;-81
2022/10/26 00:55:56;;;;;;;6.53;3.95;;;11.10;99.90;;;;;;4997948;28;20382;-81
2022/10/26 00:58:23;;;;;;;6.45;3.83;;;11.20;99.90;;;;;;5015540;28;20030;-81
2022/10/26 01:00:51;;;;;;;6.28;3.80;;;11.10;99.90;;;;;;4997636;28;20092;-80
2022/10/26 01:03:17;;;;;;;5.03;3.60;;;11.20;99.90;;;;;;4997460;28;20113;-80
2022/10/26 01:05:46;;;;;;;4.72;3.55;;;11.20;99.90;;;;;;4997302;28;20073;-80
2022/10/26 01:08:13;;;;;;;5.93;3.88;;;11.20;99.90;;;;;;5014787;28;20489;-81
2022/10/26 01:10:40;;;;;;;4.57;3.30;;;11.20;99.90;;;;;;5001515;28;20541;-81
2022/10/26 01:13:06;;;;;;;6.07;3.97;;;11.30;99.90;;;;;;5024524;28;20070;-80
2022/10/26 01:16:00;;;;;;;4.90;3.50;;;11.30;99.90;;;;;;4990907;28;20026;-80
2022/10/26 01:18:35;;;;;;;4.57;3.45;;;11.30;99.90;;;;;;4983662;28;20359;-80
2022/10/26 01:21:38;;;;;;;6.03;3.38;;;11.30;99.90;;;;;;4997065;28;20044;-81
2022/10/26 01:24:41;;;;;;;5.47;3.40;;;11.30;99.90;;;;;;4998498;28;20104;-80
2022/10/26 01:27:28;;;;;;;5.32;3.17;;;11.30;99.90;;;;;;5010893;28;20030;-79
2022/10/26 01:30:19;;;;;;;4.72;3.45;;;11.30;99.90;;;;;;5020224;28;20057;-81
2022/10/26 01:33:14;;;;;;;7.10;4.35;;;11.40;99.90;;;;;;4999594;28;20030;-81
2022/10/26 01:35:43;;;;;;;6.25;3.53;;;11.40;99.90;;;;;;4954554;28;20037;-80
2022/10/26 01:38:45;;;;;;;4.75;3.13;;;11.40;99.90;;;;;;4985905;28;20022;-81
2022/10/26 01:41:15;;;;;;;7.10;3.30;;;11.40;99.90;;;;;;4977711;28;20029;-81
2022/10/26 01:43:49;;;;;;;4.82;3.35;;;11.40;99.90;;;;;;5014983;28;20088;-80
2022/10/26 01:46:17;;;;;;;7.53;3.15;;;11.40;99.90;;;;;;4997684;28;20056;-80
2022/10/26 01:48:44;;;;;;;4.93;3.00;;;11.30;99.90;;;;;;4999903;28;20030;-81
2022/10/26 01:51:12;;;;;;;7.22;3.38;;;11.30;99.90;;;;;;4977791;28;20047;-81
2022/10/26 01:53:48;;;;;;;5.10;2.95;;;11.30;99.90;;;;;;4942765;28;20023;-81
2022/10/26 01:56:24;;;;;;;5.75;3.20;;;11.30;99.90;;;;;;4975826;28;20018;-81
2022/10/26 01:59:30;;;;;;;5.22;3.22;;;11.20;99.90;;;;;;4940130;28;20046;-82
2022/10/26 02:02:22;;;;;;;7.00;3.80;;;11.20;99.90;;;;;;4958077;28;20486;-82
2022/10/26 02:05:09;;;;;;;8.70;4.10;;;11.20;99.90;;;;;;4946374;28;20029;-82
2022/10/26 02:08:08;;;;;;;4.40;3.17;;;11.20;99.90;;;;;;4958034;28;20035;-81
2022/10/26 02:11:03;;;;;;;5.15;2.70;;;11.20;99.90;;;;;;4957921;28;20023;-81
2022/10/26 02:13:46;;;;;;;6.78;3.45;;;11.20;99.90;;;;;;4947365;28;20036;-81
2022/10/26 02:16:38;;;;;;;5.87;3.67;;;11.20;99.90;;;;;;4957623;28;20033;-82
2022/10/26 02:19:20;;;;;;;5.45;3.13;;;11.20;99.90;;;;;;4952589;28;20164;-81
2022/10/26 02:21:51;;;;;;;7.13;3.10;;;11.20;99.90;;;;;;4957605;28;20034;-81
2022/10/26 02:24:18;;;;;;;4.78;2.90;;;11.20;99.90;;;;;;4957799;28;20038;-81
2022/10/26 02:26:47;;;;;;;4.88;3.00;;;11.20;99.90;;;;;;4957677;28;20026;-80
2022/10/26 02:29:17;;;;;;;5.03;3.20;;;11.30;99.90;;;;;;4974969;28;20034;-81
2022/10/26 02:31:47;;;;;;;4.03;2.80;;;11.30;99.90;;;;;;4956772;28;20109;-81
2022/10/26 02:34:15;;;;;;;5.80;3.45;;;11.30;99.90;;;;;;4974469;28;20073;-81
2022/10/26 02:36:44;;;;;;;4.88;3.30;;;11.30;99.90;;;;;;4957104;28;20062;-81
2022/10/26 02:39:13;;;;;;;7.18;3.05;;;11.30;99.90;;;;;;4957665;28;20027;-81
2022/10/26 02:41:40;;;;;;;5.53;3.47;;;11.30;99.90;;;;;;4941528;28;20067;-81
2022/10/26 02:44:30;;;;;;;5.45;3.50;;;11.30;99.90;;;;;;4956988;28;20027;-81
2022/10/26 02:46:58;;;;;;;5.65;3.28;;;11.40;99.90;;;;;;4956121;28;20015;-81
2022/10/26 02:49:24;;;;;;;5.43;3.58;;;11.30;99.90;;;;;;4956371;28;20030;-81
2022/10/26 02:51:59;;;;;;;7.25;3.78;;;11.40;99.90;;;;;;4990730;28;20062;-81
2022/10/26 02:54:51;;;;;;;5.50;3.40;;;11.40;99.90;;;;;;4980281;28;20037;-81
2022/10/26 02:57:27;;;;;;;6.53;3.20;;;11.40;99.90;;;;;;4962440;28;20082;-81
2022/10/26 02:59:54;;;;;;;4.07;2.80;;;11.40;99.90;;;;;;4974210;28;20019;-81
2022/10/26 03:02:21;;;;;;;5.53;2.88;;;11.40;99.90;;;;;;4997853;28;20049;-81
2022/10/26 03:04:49;;;;;;;6.18;3.28;;;11.40;99.90;;;;;;4980391;28;20022;-81
2022/10/26 03:07:25;;;;;;;5.78;3.00;;;11.50;99.90;;;;;;4980225;28;20046;-81
2022/10/26 03:09:51;;;;;;;4.50;3.15;;;11.50;99.90;;;;;;4963874;28;20509;-80
2022/10/26 03:12:17;;;;;;;6.43;3.17;;;11.50;99.90;;;;;;4979979;28;20026;-81
2022/10/26 03:14:45;;;;;;;6.13;3.22;;;11.50;99.90;;;;;;4981017;28;20031;-81
2022/10/26 03:17:11;;;;;;;5.72;3.40;;;11.50;99.90;;;;;;5007772;28;20046;-81
2022/10/26 03:19:36;;;;;;;6.85;3.17;;;11.50;99.90;;;;;;4995376;28;20023;-80
2022/10/26 03:22:02;;;;;;;5.15;3.03;;;11.60;99.90;;;;;;4991847;28;20118;-79
2022/10/26 03:24:28;;;;;;;5.55;3.50;;;11.60;99.90;;;;;;4990234;28;20030;-81
2022/10/26 03:26:54;;;;;;;4.05;2.90;;;11.60;99.90;;;;;;4993088;28;20023;-79
2022/10/26 03:29:20;;;;;;;5.55;3.30;;;11.60;99.90;;;;;;4992268;28;20093;-80
2022/10/26 03:31:45;;;;;;;5.35;3.08;;;11.60;99.90;;;;;;4970796;28;20398;-79
2022/10/26 03:34:12;;;;;;;7.22;3.63;;;11.60;99.90;;;;;;4994474;28;20446;-80
2022/10/26 03:36:38;;;;;;;5.63;3.10;;;11.60;99.90;;;;;;4971191;28;20438;-80
2022/10/26 03:39:05;;;;;;;6.93;3.95;;;11.70;99.90;;;;;;4994050;28;20034;-80
2022/10/26 03:41:31;;;;;;;6.78;3.97;;;11.60;99.90;;;;;;4997097;28;20046;-80
2022/10/26 03:43:58;;;;;;;5.88;3.40;;;11.60;99.90;;;;;;4980291;28;20100;-80
2022/10/26 03:46:24;;;;;;;7.63;3.38;;;11.60;99.90;;;;;;4964748;28;20030;-80
2022/10/26 03:48:50;;;;;;;7.43;3.58;;;11.60;99.90;;;;;;4967838;28;20105;-80
2022/10/26 03:51:16;;;;;;;5.43;3.28;;;11.50;99.90;;;;;;4964568;28;20061;-80
2022/10/26 03:53:41;;;;;;;5.93;3.13;;;11.50;99.90;;;;;;4979794;28;20038;-80
2022/10/26 03:56:07;;;;;;;4.18;3.00;;;11.50;99.90;;;;;;4978192;28;20137;-81
2022/10/26 03:58:33;;;;;;;7.35;3.28;;;11.40;99.90;;;;;;4967107;28;20042;-81
2022/10/26 04:00:59;;;;;;;5.90;3.00;;;11.40;99.90;;;;;;4966574;28;20401;-80
2022/10/26 04:03:24;;;;;;;5.05;2.88;;;11.40;99.90;;;;;;4978623;28;20023;-80
2022/10/26 04:05:50;;;;;;;4.38;2.67;;;11.40;99.90;;;;;;4979811;28;20454;-80
2022/10/26 04:08:16;;;;;;;5.30;3.10;;;11.40;99.90;;;;;;4979176;28;20530;-80
2022/10/26 04:10:44;;;;;;;6.57;3.60;;;11.30;99.90;;;;;;4979152;28;20034;-80
2022/10/26 04:13:10;;;;;;;5.43;3.17;;;11.30;99.90;;;;;;4982743;28;20478;-80
2022/10/26 04:15:36;;;;;;;5.72;3.13;;;11.30;99.90;;;;;;4979116;28;20031;-80
2022/10/26 04:18:03;;;;;;;7.18;3.58;;;11.30;99.90;;;;;;4965894;28;20051;-80
2022/10/26 04:20:30;;;;;;;5.25;3.20;;;11.20;99.90;;;;;;4992190;28;20026;-80
2022/10/26 04:23:00;;;;;;;6.75;3.58;;;11.20;99.90;;;;;;4979094;28;20038;-80
2022/10/26 04:25:26;;;;;;;6.30;3.22;;;11.20;99.90;;;;;;4978970;28;20092;-80
2022/10/26 04:27:52;;;;;;;4.38;2.78;;;11.20;99.90;;;;;;4968683;28;20022;-80
2022/10/26 04:30:18;;;;;;;4.00;3.05;;;11.20;99.90;;;;;;4975477;28;20026;-81
2022/10/26 04:32:44;;;;;;;6.38;3.10;;;11.20;99.90;;;;;;4987993;28;20031;-81
2022/10/26 04:35:10;;;;;;;5.28;3.20;;;11.30;99.90;;;;;;4973177;28;20113;-81
2022/10/26 04:37:36;;;;;;;5.55;3.60;;;11.30;99.90;;;;;;4966142;28;20054;-82
2022/10/26 04:40:02;;;;;;;6.82;3.00;;;11.30;99.90;;;;;;4978881;28;20034;-81
2022/10/26 04:42:30;;;;;;;4.75;2.90;;;11.30;99.90;;;;;;4962066;28;20039;-81
2022/10/26 04:44:55;;;;;;;6.00;3.40;;;11.30;99.90;;;;;;4978882;28;20475;-81
2022/10/26 04:47:22;;;;;;;4.47;3.00;;;11.30;99.90;;;;;;4982159;28;20022;-81
2022/10/26 04:49:49;;;;;;;5.70;3.30;;;11.30;99.90;;;;;;4978672;28;20044;-81
2022/10/26 04:52:14;;;;;;;7.25;3.40;;;11.30;99.90;;;;;;4949108;28;20062;-81
2022/10/26 04:54:40;;;;;;;7.18;3.38;;;11.30;99.90;;;;;;4975159;28;20045;-81
2022/10/26 04:57:06;;;;;;;4.72;3.20;;;11.30;99.90;;;;;;4958938;28;20057;-81
2022/10/26 04:59:32;;;;;;;3.83;2.65;;;11.30;99.90;;;;;;4973761;28;20030;-81
2022/10/26 05:01:57;;;;;;;4.95;2.90;;;11.40;99.90;;;;;;4962273;28;20026;-82
2022/10/26 05:04:24;;;;;;;5.38;3.10;;;11.40;99.90;;;;;;4996125;28;20065;-81
2022/10/26 05:06:52;;;;;;;4.15;3.00;;;11.40;99.90;;;;;;4979810;28;20019;-80
2022/10/26 05:09:17;;;;;;;5.43;3.22;;;11.40;99.90;;;;;;5006633;28;20029;-78
2022/10/26 05:11:43;;;;;;;7.82;3.30;;;11.40;99.90;;;;;;4985934;28;20046;-79
2022/10/26 05:14:09;;;;;;;4.30;2.90;;;11.40;99.90;;;;;;4979873;28;20030;-81
2022/10/26 05:16:35;;;;;;;5.47;3.20;;;11.50;99.90;;;;;;4996940;28;20031;-82
2022/10/26 05:19:00;;;;;;;5.53;3.25;;;11.50;99.90;;;;;;4979440;28;20073;-82
2022/10/26 05:21:26;;;;;;;6.30;3.42;;;11.50;99.90;;;;;;4963505;28;20078;-82
2022/10/26 05:23:54;;;;;;;5.70;2.97;;;11.50;99.90;;;;;;4978521;28;20133;-82
2022/10/26 05:26:21;;;;;;;4.40;2.83;;;11.50;99.90;;;;;;4966391;28;20097;-81
2022/10/26 05:28:47;;;;;;;5.45;3.03;;;11.60;99.90;;;;;;4972897;28;20453;-82
2022/10/26 05:31:13;;;;;;;5.70;3.53;;;11.60;99.90;;;;;;4969452;28;20108;-82
2022/10/26 05:33:38;;;;;;;6.07;3.50;;;11.60;99.90;;;;;;4995569;28;20027;-82
2022/10/26 05:36:05;;;;;;;5.10;3.03;;;11.60;99.90;;;;;;4978993;28;20033;-81
2022/10/26 05:38:33;;;;;;;5.28;3.17;;;11.60;99.90;;;;;;4978350;28;20089;-82
2022/10/26 05:41:00;;;;;;;5.30;2.95;;;11.60;99.90;;;;;;4964043;28;20054;-81
2022/10/26 05:43:28;;;;;;;5.30;3.00;;;11.60;99.90;;;;;;4985877;28;20053;-82
2022/10/26 05:45:54;;;;;;;6.35;3.25;;;11.60;99.90;;;;;;4982263;28;20026;-82
2022/10/26 05:48:20;;;;;;;6.38;3.00;;;11.60;99.90;;;;;;4978208;28;20025;-81
2022/10/26 05:50:46;;;;;;;5.90;2.67;;;11.70;99.90;;;;;;4974113;28;20089;-81
2022/10/26 05:53:12;;;;;;;4.90;2.97;;;11.70;99.90;;;;;;4984489;28;20030;-81
2022/10/26 05:55:39;;;;;;;5.57;2.75;;;11.70;99.90;;;;;;4993901;28;20117;-81
2022/10/26 05:58:11;;;;;;;5.13;2.45;;;11.70;99.90;;;;;;4993782;28;20026;-82
2022/10/26 06:01:01;;;;;;;4.70;2.63;;;11.70;99.90;;;;;;4977174;28;20125;-81
2022/10/26 06:04:13;;;;;;;6.30;2.72;;;11.70;99.90;;;;;;4993481;28;20048;-81
2022/10/26 06:06:43;;;;;;;4.47;2.33;;;11.70;99.90;;;;;;4973775;28;20101;-81
2022/10/26 06:09:12;;;;;;;5.07;2.70;;;11.70;99.90;;;;;;4966986;28;20015;-81
2022/10/26 06:11:39;;;;;;;4.40;2.88;;;11.70;99.90;;;;;;4958083;28;20030;-81
2022/10/26 06:14:06;;;;;;;3.90;2.50;;;11.70;99.90;;;;;;4966677;28;20046;-80
2022/10/26 06:16:46;;;;;;;6.93;2.70;;;11.60;99.90;;;;;;4958809;28;20130;-81
2022/10/26 06:19:21;;;;;;;5.03;2.97;;;11.60;99.90;;;;;;4967914;28;20038;-81
2022/10/26 06:22:05;;;;;;;5.03;2.60;;;11.50;99.90;;;;;;4957648;28;20034;-81
2022/10/26 06:24:50;;;;;;;4.60;2.67;;;11.50;99.90;;;;;;4957570;28;20053;-81
2022/10/26 06:27:36;;;;;;;4.03;2.50;;;11.50;99.90;;;;;;4976619;28;20027;-81
2022/10/26 06:30:13;;;;;;;4.32;2.03;;;11.40;99.90;;;;;;4976905;28;20462;-81
2022/10/26 06:32:43;;;;;;;3.70;2.15;;;11.40;99.90;;;;;;4976683;28;20033;-81
2022/10/26 06:35:17;;;;;;;3.85;1.98;;;11.40;99.90;;;;;;4997273;28;20521;-81
2022/10/26 06:37:44;;;;;;;3.80;2.60;;;11.30;99.90;;;;;;4980604;28;20379;-81
2022/10/26 06:40:13;;;;;;;5.32;2.58;;;11.40;99.90;;;;;;4980731;28;20113;-81
2022/10/26 06:42:40;;;;;;;3.97;2.13;;;11.30;99.90;;;;;;4980246;28;20478;-81
2022/10/26 06:45:10;;;;;;;3.47;2.40;;;11.30;99.90;;;;;;4980906;28;20081;-81
2022/10/26 06:47:45;;;;;;;5.28;2.65;;;11.30;99.90;;;;;;4980226;28;20026;-81
2022/10/26 06:50:22;;;;;;;4.40;2.25;;;11.20;99.90;;;;;;4990182;28;20027;-81
2022/10/26 06:52:58;;;;;;;3.88;1.90;;;11.20;99.90;;;;;;4997783;28;20057;-81
2022/10/26 06:55:26;;;;;;;5.07;2.00;;;11.30;99.90;;;;;;4979778;28;20026;-82
2022/10/26 06:57:52;;;;;;;6.18;2.53;;;11.30;99.90;;;;;;4978876;28;20069;-81
2022/10/26 07:00:23;;;;;;;4.68;2.10;;;11.30;99.90;;;;;;4968583;28;20018;-81
2022/10/26 07:02:49;;;;;;;3.95;2.35;;;11.40;99.90;;;;;;4980355;28;20042;-81
2022/10/26 07:05:17;;;;;;;3.13;1.73;;;11.40;99.90;;;;;;4985949;28;20019;-81
2022/10/26 07:07:46;;;;;;;3.60;2.50;;;11.50;99.90;;;;;;4989414;28;20102;-81
2022/10/26 07:10:13;;;;;;;4.38;2.20;;;11.50;99.90;;;;;;4982754;28;20031;-80
2022/10/26 07:12:40;;;;;;;5.40;2.38;;;11.50;99.90;;;;;;4992216;28;20050;-81
2022/10/26 07:15:10;;;;;;;5.85;2.40;;;11.50;99.90;;;;;;4984811;28;20042;-81
2022/10/26 07:17:44;;;;;;;4.00;2.15;;;11.60;99.90;;;;;;4973324;28;20049;-81
2022/10/26 07:20:12;;;;;;;3.47;2.08;;;11.60;99.90;;;;;;4978878;28;20048;-81
2022/10/26 07:22:38;;;;;;;3.65;1.92;;;11.60;99.90;;;;;;4955426;28;20434;-81
2022/10/26 07:25:05;;;;;;;3.63;2.47;;;11.70;99.90;;;;;;4976608;28;20022;-81
2022/10/26 07:27:31;;;;;;;4.22;2.40;;;11.80;99.90;;;;;;4972985;28;20031;-81
2022/10/26 07:29:57;;;;;;;3.70;2.20;;;11.90;99.90;;;;;;4974714;28;20033;-81
2022/10/26 07:32:23;;;;;;;3.03;2.10;;;12.00;99.90;;;;;;4974557;28;20372;-81
2022/10/26 07:34:49;;;;;;;4.93;2.30;;;12.10;99.90;;;;;;4972655;28;20030;-81
2022/10/26 07:37:15;;;;;;;5.63;2.10;;;12.20;99.90;;;;;;4966501;28;20027;-82
2022/10/26 07:39:40;;;;;;;3.15;2.15;;;12.30;99.90;;;;;;4980101;28;20193;-81
2022/10/26 07:42:08;;;;;;;4.03;1.90;;;12.40;99.90;;;;;;4983006;28;20379;-82
2022/10/26 07:44:37;;;;;;;3.30;1.90;;;12.50;99.90;;;;;;4980099;28;20033;-82
2022/10/26 07:47:03;;;;;;;2.60;1.95;;;12.50;99.90;;;;;;4978609;28;20034;-82
2022/10/26 07:49:30;;;;;;;3.65;1.95;;;12.60;99.90;;;;;;4979773;28;20485;-82
2022/10/26 07:51:56;;;;;;;3.88;2.17;;;12.70;99.90;;;;;;4997527;28;20070;-81
2022/10/26 07:54:21;;;;;;;2.83;1.80;;;12.70;99.90;;;;;;4965760;28;20033;-81
2022/10/26 07:56:50;;;;;;;4.82;1.70;;;12.80;99.90;;;;;;4990038;28;20032;-82
2022/10/26 07:59:17;;;;;;;3.30;1.70;;;12.80;99.90;;;;;;4992599;28;20027;-82
2022/10/26 08:01:43;;;;;;;3.63;2.10;;;12.90;99.90;;;;;;4981487;28;20062;-81
2022/10/26 08:04:09;;;;;;;3.20;1.60;;;12.90;99.90;;;;;;4979183;28;20018;-82
2022/10/26 08:06:35;;;;;;;4.00;1.67;;;13.00;99.90;;;;;;4979001;28;20026;-82
2022/10/26 08:09:01;;;;;;;3.85;2.08;;;13.00;99.90;;;;;;4979175;28;20026;-81
2022/10/26 08:11:27;;;;;;;3.05;2.00;;;13.10;99.90;;;;;;4979057;28;20030;-82
2022/10/26 08:13:54;;;;;;;3.45;2.30;;;13.20;99.90;;;;;;4979356;28;20030;-82
2022/10/26 08:16:26;;;;;;;3.80;2.20;;;13.30;99.90;;;;;;4978287;28;20065;-82
2022/10/26 08:18:52;;;;;;;4.90;2.03;;;13.40;99.90;;;;;;4978532;28;20030;-82
2022/10/26 08:21:24;;;;;;;4.03;2.35;;;13.50;99.90;;;;;;4978092;28;20023;-82
2022/10/26 08:23:50;;;;;;;5.75;2.53;;;13.70;99.90;;;;;;4975337;28;20034;-82
2022/10/26 08:26:20;;;;;;;6.30;3.00;;;13.80;99.90;;;;;;4993564;28;20062;-82
2022/10/26 08:28:47;;;;;;;4.18;2.53;;;14.00;99.90;;;;;;4977172;28;20018;-82
2022/10/26 08:31:13;;;;;;;4.68;2.42;;;14.10;99.90;;;;;;4994520;28;20030;-82
2022/10/26 08:33:39;;;;;;;4.15;2.30;;;14.20;99.90;;;;;;4993779;28;20030;-82
2022/10/26 08:36:08;;;;;;;3.35;1.70;;;14.40;99.90;;;;;;4982670;28;20128;-82
2022/10/26 08:38:36;;;;;;;6.00;1.88;;;14.50;99.90;;;;;;4979319;28;20022;-82
2022/10/26 08:41:09;;;;;;;4.32;1.75;;;14.50;99.90;;;;;;4979504;28;20038;-82
2022/10/26 08:43:53;;;;;;;4.03;1.80;;;14.70;99.90;;;;;;4977766;28;20117;-82
2022/10/26 08:46:26;;;;;;;3.00;1.70;;;14.80;99.90;;;;;;4975024;28;20034;-82
2022/10/26 08:49:25;;;;;;;2.90;1.63;;;14.90;99.90;;;;;;4994618;28;20072;-82
2022/10/26 08:51:56;;;;;;;3.78;1.60;;;15.10;99.90;;;;;;4972563;28;20050;-82
2022/10/26 08:54:36;;;;;;;3.85;1.77;;;15.20;99.90;;;;;;4974886;28;20065;-82
2022/10/26 08:57:10;;;;;;;4.43;1.90;;;15.40;99.90;;;;;;4981797;28;20054;-82
2022/10/26 08:59:56;;;;;;;4.10;1.60;;;16.20;99.90;;;;;;4972643;28;20038;-82
2022/10/26 09:02:23;;;;;;;2.60;1.23;;;18.00;99.90;;;;;;4994032;28;20114;-82
2022/10/26 09:04:52;;;;;;;2.15;0.95;;;19.60;99.90;;;;;;4989338;28;20022;-80
2022/10/26 09:07:39;;;;;;;3.75;1.55;;;21.10;99.90;;;;;;5012743;28;20014;-81
2022/10/26 09:10:11;;;;;;;2.75;1.00;;;22.30;99.90;;;;;;5014157;28;20039;-82
2022/10/26 09:12:50;;;;;;;3.10;1.20;;;23.40;99.90;;;;;;4982240;28;20100;-82
2022/10/26 09:15:55;;;;;;;4.00;1.40;;;24.10;99.90;;;;;;4976830;28;20082;-82
2022/10/26 09:18:21;;;;;;;2.22;0.90;;;24.00;99.90;;;;;;4977747;28;20061;-82
2022/10/26 09:21:10;;;;;;;2.55;1.10;;;23.60;99.90;;;;;;4978440;28;20475;-82
2022/10/26 09:24:08;;;;;;;2.10;1.50;;;23.80;99.90;;;;;;4977110;28;20497;-82
2022/10/26 09:26:58;;;;;;;2.30;1.30;;;24.10;99.90;;;;;;4975002;28;20215;-83
2022/10/26 09:29:41;;;;;;;4.07;1.20;;;24.50;99.90;;;;;;4981993;28;20049;-82
2022/10/26 09:32:18;;;;;;;2.33;1.20;;;24.80;99.90;;;;;;4962372;28;20030;-82
2022/10/26 09:35:11;;;;;;;2.55;1.25;;;24.80;99.90;;;;;;4976719;28;20089;-82
2022/10/26 09:37:45;;;;;;;2.83;1.25;;;24.50;99.90;;;;;;4976251;28;20040;-82
2022/10/26 09:40:32;;;;;;;3.25;1.17;;;24.30;99.90;;;;;;4976558;28;20025;-82
2022/10/26 09:43:21;;;;;;;2.05;1.15;;;24.80;99.90;;;;;;4976198;28;20038;-82
2022/10/26 09:45:53;;;;;;;2.55;1.17;;;25.30;99.90;;;;;;4973326;28;20038;-82
2022/10/26 09:48:31;;;;;;;;;;;25.80;99.90;;;;;;4974826;28;20022;-82
2022/10/26 09:51:04;;;;;;;2.08;1.00;;;26.30;99.90;;;;;;4977163;28;20282;-82
2022/10/26 09:53:30;;;;;;;3.00;1.25;;;26.80;99.90;;;;;;4975748;28;20019;-82
2022/10/26 09:56:12;;;;;;;2.88;1.30;;;27.30;99.90;;;;;;5004133;28;20026;-82
2022/10/26 09:58:44;;;;;;;2.63;1.17;;;27.70;99.90;;;;;;4974702;28;20041;-82
2022/10/26 10:01:28;;;;;;;3.53;1.60;;;27.60;99.90;;;;;;4974423;28;20037;-82
2022/10/26 10:04:12;;;;;;;3.17;1.35;;;27.30;99.90;;;;;;4993898;28;20014;-81
2022/10/26 10:06:42;;;;;;;2.65;0.88;;;26.40;99.90;;;;;;4984529;28;20026;-82
2022/10/26 10:09:19;;;;;;;3.42;1.10;;;25.60;99.90;;;;;;4978278;28;20018;-81
2022/10/26 10:12:18;;;;;;;2.45;1.15;;;25.20;99.90;;;;;;4980551;28;20062;-81
2022/10/26 10:15:15;;;;;;;2.47;1.20;;;24.90;99.90;;;;;;4977351;28;20025;-81
2022/10/26 10:17:51;;;;;;;3.47;1.60;;;25.00;99.90;;;;;;4986060;28;20038;-81
2022/10/26 10:20:37;;;;;;;3.17;1.13;;;25.20;99.90;;;;;;4990335;28;20022;-81
2022/10/26 10:23:03;;;;;;;3.65;1.23;;;24.70;99.90;;;;;;4979476;28;20042;-81
2022/10/26 10:25:35;;;;;;;3.97;1.45;;;24.60;99.90;;;;;;4984478;28;20028;-82
2022/10/26 10:28:22;;;;;;;2.30;1.25;;;24.80;99.90;;;;;;4998381;28;20041;-82
2022/10/26 10:30:54;;;;;;;3.80;1.30;;;25.00;99.90;;;;;;4982954;28;20137;-81
2022/10/26 10:33:41;;;;;;;2.95;1.20;;;25.60;99.90;;;;;;4999288;28;20030;-82
2022/10/26 10:36:24;;;;;;;2.70;1.30;;;26.40;99.90;;;;;;4965858;28;20019;-81
2022/10/26 10:38:55;;;;;;;2.83;1.15;;;26.80;99.90;;;;;;4979014;28;20080;-81
2022/10/26 10:41:29;;;;;;;3.85;1.05;;;27.10;99.90;;;;;;4977889;28;20042;-82
2022/10/26 10:44:28;;;;;;;2.72;1.17;;;27.50;99.90;;;;;;4987445;28;20045;-82
2022/10/26 10:47:06;;;;;;;2.30;1.00;;;27.90;99.90;;;;;;4973097;28;20046;-81
2022/10/26 10:49:32;;;;;;;2.17;0.98;;;28.20;99.90;;;;;;4979424;28;20053;-81
2022/10/26 10:52:00;;;;;;;3.45;1.00;;;28.30;99.90;;;;;;4990025;28;20056;-81
2022/10/26 10:54:36;;;;;;;2.25;1.20;;;28.30;99.90;;;;;;4976366;28;20037;-80
2022/10/26 10:57:29;;;;;;;4.43;1.40;;;28.10;99.90;;;;;;4980403;28;20138;-80
2022/10/26 11:00:08;;;;;;;5.28;1.65;;;27.60;99.90;;;;;;4982051;28;20378;-80
2022/10/26 11:03:31;;;;;;;2.85;1.20;;;27.40;99.90;;;;;;4977385;28;20046;-79
2022/10/26 11:06:19;;;;;;;2.42;0.95;;;27.20;99.90;;;;;;4916656;29;20084;-78
2022/10/26 11:09:14;;;;;;;3.08;1.35;;;27.30;99.90;;;;;;4905202;29;20039;-80
2022/10/26 11:11:49;;;;;;;3.22;1.17;;;27.70;99.90;;;;;;4866714;29;20052;-81
2022/10/26 11:14:26;;;;;;;3.17;1.23;;;28.00;99.90;;;;;;4886239;29;20108;-80
2022/10/26 11:17:08;;;;;;;1.50;0.85;;;28.00;99.90;;;;;;4925531;28;20073;-80
2022/10/26 11:19:53;;;;;;;1.63;1.20;;;27.80;99.90;;;;;;4960439;28;20433;-80
2022/10/26 11:22:37;;;;;;;2.75;1.17;;;28.10;99.90;;;;;;4977165;28;20037;-80
2022/10/26 11:25:44;;;;;;;2.22;1.10;;;28.40;99.90;;;;;;4968756;28;20474;-81
2022/10/26 11:28:54;;;;;;;3.28;1.40;;;28.50;99.90;;;;;;4992064;28;20046;-80
2022/10/26 11:31:40;;;;;;;3.05;0.88;;;28.40;99.90;;;;;;4970916;28;20498;-81
2022/10/26 11:34:21;;;;;;;3.75;1.17;;;27.50;99.90;;;;;;4991417;28;20545;-80
2022/10/26 11:36:56;;;;;;;3.17;1.00;;;27.30;99.90;;;;;;4983959;28;20161;-82
2022/10/26 11:39:38;;;;;;;3.38;1.15;;;27.50;99.90;;;;;;4984143;28;20462;-82
2022/10/26 11:42:26;;;;;;;2.55;1.00;;;27.80;99.90;;;;;;4982225;28;20046;-80
2022/10/26 11:45:24;;;;;;;3.13;1.27;;;27.40;99.90;;;;;;4978192;28;20030;-81
2022/10/26 11:48:10;;;;;;;1.88;1.00;;;26.60;99.90;;;;;;4991109;28;20027;-80
2022/10/26 11:50:44;;;;;;;3.35;1.40;;;25.80;99.90;;;;;;4993354;28;20053;-80
2022/10/26 11:53:16;;;;;;;3.90;1.33;;;25.20;99.90;;;;;;4977634;28;20037;-81
2022/10/26 11:55:52;;;;;;;2.75;1.38;;;24.50;99.90;;;;;;4971212;28;20040;-81
2022/10/26 11:58:22;;;;;;;2.83;1.20;;;23.80;99.90;;;;;;4982386;28;20039;-81
2022/10/26 12:01:16;;;;;;;2.97;1.23;;;23.20;99.90;;;;;;4981887;28;20126;-82
2022/10/26 12:03:56;;;;;;;3.72;1.70;;;22.80;99.90;;;;;;4971073;28;20038;-80
2022/10/26 12:06:30;;;;;;;2.95;1.48;;;22.40;99.90;;;;;;4995432;28;20026;-81
2022/10/26 12:09:09;;;;;;;4.70;1.80;;;22.20;99.90;;;;;;4987849;28;20034;-80
2022/10/26 12:11:49;;;;;;;5.30;1.65;;;22.00;99.90;;;;;;4967222;28;20041;-81
2022/10/26 12:15:05;;;;;;;4.38;1.58;;;22.10;99.90;;;;;;4981343;28;20085;-80
2022/10/26 12:17:45;;;;;;;3.60;1.40;;;23.00;99.90;;;;;;4955755;28;20034;-81
2022/10/26 12:21:05;;;;;;;2.72;1.25;;;24.30;99.90;;;;;;4978085;28;20025;-82
2022/10/26 12:23:53;;;;;;;2.95;1.40;;;25.80;99.90;;;;;;4941446;28;20520;-81
2022/10/26 12:26:30;;;;;;;2.00;1.17;;;26.50;99.90;;;;;;4976711;28;20030;-81
2022/10/26 12:29:05;;;;;;;2.15;1.17;;;26.50;99.90;;;;;;4992594;28;20470;-80
2022/10/26 12:31:44;;;;;;;3.90;1.08;;;27.00;99.90;;;;;;5004732;28;20038;-81
2022/10/26 12:34:46;;;;;;;2.85;1.13;;;27.50;99.90;;;;;;4991975;28;20497;-81
2022/10/26 12:37:35;;;;;;;3.17;1.33;;;28.00;99.90;;;;;;4972871;28;20014;-81
2022/10/26 12:40:39;;;;;;;3.67;1.17;;;28.50;99.90;;;;;;4975597;28;20038;-81
2022/10/26 12:43:17;;;;;;;3.95;1.30;;;28.30;99.90;;;;;;4969108;28;20073;-80
2022/10/26 12:46:13;;;;;;;2.78;1.35;;;28.00;99.90;;;;;;4996230;28;20069;-80
2022/10/26 12:48:48;;;;;;;2.08;0.95;;;27.70;99.90;;;;;;4952830;28;20037;-80
2022/10/26 12:51:26;;;;;;;3.20;1.00;;;28.10;99.90;;;;;;4959551;28;20050;-80
2022/10/26 12:54:03;;;;;;;4.32;0.98;;;28.40;99.90;;;;;;4953117;28;20170;-81
2022/10/26 12:57:04;;;;;;;2.00;1.10;;;29.00;99.90;;;;;;4976198;28;20039;-80
2022/10/26 13:00:16;;;;;;;3.63;1.00;;;29.30;99.90;;;;;;4961884;28;20039;-82
2022/10/26 13:03:17;;;;;;;2.03;0.90;;;29.40;99.90;;;;;;4879760;29;20051;-81
2022/10/26 13:06:08;;;;;;;3.90;1.00;;;29.20;99.90;;;;;;4879735;29;20044;-81
2022/10/26 13:08:52;;;;;;;3.58;1.00;;;28.50;99.90;;;;;;4989633;28;20087;-81
2022/10/26 13:11:43;;;;;;;5.57;1.50;;;27.70;99.90;;;;;;4953371;28;20023;-82
2022/10/26 13:14:33;;;;;;;2.88;1.05;;;27.00;99.90;;;;;;4959629;28;20038;-81
2022/10/26 13:17:27;;;;;;;1.40;0.80;;;26.30;99.90;;;;;;4959700;28;20054;-81
2022/10/26 13:20:17;;;;;;;1.98;1.00;;;25.40;99.90;;;;;;4953254;28;20047;-81
2022/10/26 13:22:51;;;;;;;1.75;1.00;;;24.80;99.90;;;;;;4955723;28;20034;-81
2022/10/26 13:25:28;;;;;;;2.25;0.98;;;24.60;99.90;;;;;;4975649;28;20464;-82
2022/10/26 13:28:00;;;;;;;3.47;1.05;;;24.50;99.90;;;;;;4935533;29;20040;-81